Time;durP1;ratioP1;P1;durP2;ratioP2;P2;SDS_P1;SDS_P2;PMS_P1;PMS_P2;Temp;Humidity;BMP_temperature;BMP_pressure;BME280_temperature;BME280_humidity;BME280_pressure;Samples;Min_cycle;Max_cycle;Signal;HPM_P1;HPM_P2
2021/10/20 00:02:21;;;;;;;28.20;26.30;;;;;;;;;;5074607;28;20441;-92
2021/10/20 00:04:48;;;;;;;28.90;26.80;;;;;;;;;;5074641;28;20416;-92
2021/10/20 00:07:15;;;;;;;27.73;26.00;;;;;;;;;;5074783;28;20411;-92
2021/10/20 00:09:44;;;;;;;30.03;27.80;;;;;;;;;;5074573;28;20831;-92
2021/10/20 00:12:12;;;;;;;27.20;25.60;;;;;;;;;;5074840;28;20808;-93
2021/10/20 00:14:39;;;;;;;28.47;26.77;;;;;;;;;;5074941;28;20537;-92
2021/10/20 00:17:06;;;;;;;26.20;24.70;;;;;;;;;;5074981;28;20446;-92
2021/10/20 00:19:34;;;;;;;28.10;26.30;;;;;;;;;;5075226;28;20408;-92
2021/10/20 00:22:01;;;;;;;26.13;24.60;;;;;;;;;;5075176;28;20428;-92
2021/10/20 00:24:29;;;;;;;26.83;25.13;;;;;;;;;;5075998;28;20413;-92
2021/10/20 00:26:57;;;;;;;27.67;25.97;;;;;;;;;;5074954;28;20468;-93
2021/10/20 00:29:25;;;;;;;27.80;26.10;;;;;;;;;;5076184;28;20419;-92
2021/10/20 00:31:52;;;;;;;26.87;25.17;;;;;;;;;;5075790;28;20493;-92
2021/10/20 00:34:19;;;;;;;27.90;26.27;;;;;;;;;;5075478;28;20486;-92
2021/10/20 00:36:47;;;;;;;25.10;23.63;;;;;;;;;;5077147;28;20420;-91
2021/10/20 00:39:14;;;;;;;26.77;25.20;;;;;;;;;;5074563;28;20425;-92
2021/10/20 00:41:42;;;;;;;26.67;25.00;;;;;;;;;;5073968;28;20897;-92
2021/10/20 00:44:10;;;;;;;27.30;25.50;;;;;;;;;;5073993;28;20474;-93
2021/10/20 00:46:38;;;;;;;27.17;25.10;;;;;;;;;;5074073;28;20436;-92
2021/10/20 00:49:05;;;;;;;26.50;24.90;;;;;;;;;;5074072;28;20428;-92
2021/10/20 00:51:33;;;;;;;24.80;23.30;;;;;;;;;;5076946;28;20518;-92
2021/10/20 00:54:00;;;;;;;25.30;23.90;;;;;;;;;;5075519;28;20481;-92
2021/10/20 00:56:28;;;;;;;26.03;24.10;;;;;;;;;;5075828;28;20467;-92
2021/10/20 00:58:55;;;;;;;27.27;25.57;;;;;;;;;;5078413;28;20459;-93
2021/10/20 01:01:24;;;;;;;26.20;24.70;;;;;;;;;;5073307;28;20456;-93
2021/10/20 01:03:52;;;;;;;25.60;24.10;;;;;;;;;;5074150;28;20799;-91
2021/10/20 01:06:19;;;;;;;27.47;25.67;;;;;;;;;;5074007;28;20436;-92
2021/10/20 01:08:46;;;;;;;26.00;24.47;;;;;;;;;;5073963;28;20412;-92
2021/10/20 01:11:15;;;;;;;25.10;23.60;;;;;;;;;;5074051;28;20923;-92
2021/10/20 01:13:42;;;;;;;25.50;24.07;;;;;;;;;;5073985;28;20437;-93
2021/10/20 01:16:09;;;;;;;25.83;24.37;;;;;;;;;;5072589;28;20987;-92
2021/10/20 01:18:39;;;;;;;25.90;24.37;;;;;;;;;;5074111;28;20785;-92
2021/10/20 01:21:06;;;;;;;25.00;23.50;;;;;;;;;;5073805;28;20411;-92
2021/10/20 01:23:35;;;;;;;26.60;24.80;;;;;;;;;;5073488;28;20416;-90
2021/10/20 01:26:02;;;;;;;24.60;23.20;;;;;;;;;;5073618;28;20412;-93
2021/10/20 01:28:30;;;;;;;26.50;25.00;;;;;;;;;;5074037;28;20417;-92
2021/10/20 01:30:57;;;;;;;25.57;23.80;;;;;;;;;;5077524;28;20428;-92
2021/10/20 01:33:25;;;;;;;25.37;23.77;;;;;;;;;;5076347;28;20475;-92
2021/10/20 01:35:52;;;;;;;25.77;24.27;;;;;;;;;;5077483;28;20463;-92
2021/10/20 01:38:19;;;;;;;26.63;24.87;;;;;;;;;;5077617;28;20441;-92
2021/10/20 01:40:48;;;;;;;25.60;24.10;;;;;;;;;;5077623;28;20408;-92
2021/10/20 01:43:15;;;;;;;26.10;24.47;;;;;;;;;;5077375;28;20431;-92
2021/10/20 01:45:43;;;;;;;27.87;26.00;;;;;;;;;;5077336;28;20423;-92
2021/10/20 01:48:10;;;;;;;27.40;25.70;;;;;;;;;;5076823;28;20962;-92
2021/10/20 01:50:38;;;;;;;28.10;26.30;;;;;;;;;;5077304;28;20430;-92
2021/10/20 01:53:05;;;;;;;27.53;25.80;;;;;;;;;;5076903;28;20412;-92
2021/10/20 01:55:32;;;;;;;27.30;25.33;;;;;;;;;;5076613;28;20459;-92
2021/10/20 01:58:01;;;;;;;27.10;25.30;;;;;;;;;;5077041;28;20444;-92
2021/10/20 02:00:28;;;;;;;26.57;25.07;;;;;;;;;;5076846;28;20453;-92
2021/10/20 02:02:56;;;;;;;25.27;23.73;;;;;;;;;;5077451;28;20431;-92
2021/10/20 02:05:23;;;;;;;26.00;24.40;;;;;;;;;;5076956;28;20431;-92
2021/10/20 02:07:51;;;;;;;25.27;23.87;;;;;;;;;;5076941;28;20457;-92
2021/10/20 02:10:18;;;;;;;24.53;23.27;;;;;;;;;;5075903;28;20639;-92
2021/10/20 02:12:46;;;;;;;24.70;23.40;;;;;;;;;;5077028;28;20825;-92
2021/10/20 02:15:14;;;;;;;23.60;22.30;;;;;;;;;;5076727;28;20937;-92
2021/10/20 02:17:42;;;;;;;24.20;22.73;;;;;;;;;;5077086;28;20441;-92
2021/10/20 02:20:11;;;;;;;23.13;21.93;;;;;;;;;;5075612;28;20450;-92
2021/10/20 02:22:38;;;;;;;23.73;22.30;;;;;;;;;;5076409;28;20936;-93
2021/10/20 02:25:06;;;;;;;23.43;22.07;;;;;;;;;;5076572;28;20538;-92
2021/10/20 02:27:34;;;;;;;24.17;22.87;;;;;;;;;;5076482;28;20505;-92
2021/10/20 02:30:01;;;;;;;22.97;21.63;;;;;;;;;;5076504;28;20843;-92
2021/10/20 02:32:30;;;;;;;24.00;22.60;;;;;;;;;;5076294;28;20442;-92
2021/10/20 02:34:57;;;;;;;23.47;22.07;;;;;;;;;;5075963;28;20476;-93
2021/10/20 02:37:25;;;;;;;24.47;22.60;;;;;;;;;;5076516;28;20450;-93
2021/10/20 02:39:52;;;;;;;23.63;22.40;;;;;;;;;;5076278;28;20436;-92
2021/10/20 02:42:19;;;;;;;23.80;22.50;;;;;;;;;;5076271;28;20438;-92
2021/10/20 02:44:47;;;;;;;23.90;22.50;;;;;;;;;;5076159;28;20438;-90
2021/10/20 02:47:14;;;;;;;23.97;22.40;;;;;;;;;;5075015;28;20453;-93
2021/10/20 02:49:43;;;;;;;23.23;22.03;;;;;;;;;;5075892;28;20438;-91
2021/10/20 02:52:11;;;;;;;23.80;22.50;;;;;;;;;;5076216;28;20434;-92
2021/10/20 02:54:38;;;;;;;22.40;21.20;;;;;;;;;;5075860;28;20937;-93
2021/10/20 02:57:05;;;;;;;23.30;22.03;;;;;;;;;;5075892;28;20516;-93
2021/10/20 02:59:33;;;;;;;23.33;22.00;;;;;;;;;;5075843;28;20473;-93
2021/10/20 03:02:00;;;;;;;24.57;22.87;;;;;;;;;;5076220;28;20424;-92
2021/10/20 03:04:28;;;;;;;24.20;22.70;;;;;;;;;;5076080;28;20890;-92
2021/10/20 03:06:56;;;;;;;23.40;22.10;;;;;;;;;;5076017;28;20416;-91
2021/10/20 03:09:24;;;;;;;23.33;21.93;;;;;;;;;;5075324;28;20901;-91
2021/10/20 03:11:51;;;;;;;23.37;22.00;;;;;;;;;;5075500;28;20424;-92
2021/10/20 03:14:18;;;;;;;23.33;21.93;;;;;;;;;;5075587;28;20459;-93
2021/10/20 03:16:46;;;;;;;22.60;21.30;;;;;;;;;;5075525;28;20423;-92
2021/10/20 03:19:13;;;;;;;24.03;22.33;;;;;;;;;;5075658;28;20416;-93
2021/10/20 03:21:41;;;;;;;23.70;22.33;;;;;;;;;;5075729;28;20908;-91
2021/10/20 03:24:10;;;;;;;23.77;22.27;;;;;;;;;;5078371;28;20932;-92
2021/10/20 03:26:37;;;;;;;23.13;21.87;;;;;;;;;;5080660;28;20425;-92
2021/10/20 03:29:04;;;;;;;23.13;21.77;;;;;;;;;;5077970;28;20419;-93
2021/10/20 03:31:32;;;;;;;23.07;21.77;;;;;;;;;;5082970;28;20430;-92
2021/10/20 03:33:59;;;;;;;24.73;23.33;;;;;;;;;;5075661;28;20436;-91
2021/10/20 03:36:26;;;;;;;23.83;22.47;;;;;;;;;;5074914;28;20477;-92
2021/10/20 03:38:54;;;;;;;25.03;23.43;;;;;;;;;;5074864;28;20894;-92
2021/10/20 03:41:22;;;;;;;24.07;22.57;;;;;;;;;;5075473;28;20415;-93
2021/10/20 03:43:50;;;;;;;25.83;23.80;;;;;;;;;;5075250;28;20780;-92
2021/10/20 03:46:17;;;;;;;24.77;23.13;;;;;;;;;;5074773;28;20889;-92
2021/10/20 03:48:45;;;;;;;25.40;23.90;;;;;;;;;;5074943;28;20413;-92
2021/10/20 03:51:12;;;;;;;23.63;22.20;;;;;;;;;;5074791;28;20791;-91
2021/10/20 03:53:39;;;;;;;24.17;22.70;;;;;;;;;;5074616;28;20435;-93
2021/10/20 03:56:07;;;;;;;24.27;22.87;;;;;;;;;;5074580;28;20464;-92
2021/10/20 03:58:36;;;;;;;24.70;23.30;;;;;;;;;;5074280;28;20456;-92
2021/10/20 04:01:03;;;;;;;23.60;22.20;;;;;;;;;;5074958;28;20412;-92
2021/10/20 04:03:30;;;;;;;23.33;21.70;;;;;;;;;;5074248;28;20898;-92
2021/10/20 04:05:57;;;;;;;25.70;23.57;;;;;;;;;;5074528;28;20416;-90
2021/10/20 04:08:25;;;;;;;23.70;22.20;;;;;;;;;;5074436;28;20438;-91
2021/10/20 04:10:52;;;;;;;22.77;21.37;;;;;;;;;;5074507;28;20476;-90
2021/10/20 04:13:19;;;;;;;24.00;22.60;;;;;;;;;;5074641;28;20442;-91
2021/10/20 04:15:49;;;;;;;22.40;21.20;;;;;;;;;;5074229;28;20477;-91
2021/10/20 04:18:17;;;;;;;22.17;20.83;;;;;;;;;;5074117;28;20419;-90
2021/10/20 04:20:44;;;;;;;23.50;22.00;;;;;;;;;;5074203;28;20478;-90
2021/10/20 04:23:11;;;;;;;22.30;21.00;;;;;;;;;;5074701;28;20922;-90
2021/10/20 04:25:39;;;;;;;23.73;22.27;;;;;;;;;;5074456;28;20404;-90
2021/10/20 04:28:06;;;;;;;23.67;22.23;;;;;;;;;;5074428;28;20412;-92
2021/10/20 04:30:34;;;;;;;23.40;22.00;;;;;;;;;;5074602;28;20412;-91
2021/10/20 04:33:02;;;;;;;24.60;23.00;;;;;;;;;;5074011;28;20419;-90
2021/10/20 04:35:30;;;;;;;22.70;21.30;;;;;;;;;;5074298;28;20466;-90
2021/10/20 04:37:57;;;;;;;23.60;22.20;;;;;;;;;;5074123;28;20412;-91
2021/10/20 04:40:24;;;;;;;22.80;21.53;;;;;;;;;;5074319;28;20508;-91
2021/10/20 04:42:52;;;;;;;22.87;21.67;;;;;;;;;;5074129;28;20404;-91
2021/10/20 04:45:19;;;;;;;24.10;22.60;;;;;;;;;;5074384;28;20435;-91
2021/10/20 04:47:47;;;;;;;22.90;21.60;;;;;;;;;;5074276;28;20774;-91
2021/10/20 04:50:17;;;;;;;23.07;21.77;;;;;;;;;;5072777;28;20471;-90
2021/10/20 04:52:44;;;;;;;22.67;21.37;;;;;;;;;;5074228;28;20409;-88
2021/10/20 04:55:11;;;;;;;22.57;21.30;;;;;;;;;;5073682;28;20476;-91
2021/10/20 04:57:39;;;;;;;23.70;22.30;;;;;;;;;;5073998;28;20981;-91
2021/10/20 05:00:07;;;;;;;22.77;21.37;;;;;;;;;;5073202;28;20423;-90
2021/10/20 05:02:36;;;;;;;21.93;20.50;;;;;;;;;;5074434;28;20403;-90
2021/10/20 05:05:04;;;;;;;22.90;21.70;;;;;;;;;;5076830;28;20431;-90
2021/10/20 05:07:33;;;;;;;21.43;20.27;;;;;;;;;;5077861;28;20441;-91
2021/10/20 05:10:00;;;;;;;24.03;22.43;;;;;;;;;;5078318;28;20435;-90
2021/10/20 05:12:27;;;;;;;22.93;21.33;;;;;;;;;;5078016;28;20761;-90
2021/10/20 05:14:55;;;;;;;21.67;20.33;;;;;;;;;;5076692;28;20835;-90
2021/10/20 05:17:22;;;;;;;22.03;20.83;;;;;;;;;;5078104;28;20459;-91
2021/10/20 05:19:49;;;;;;;23.17;21.87;;;;;;;;;;5077787;28;20442;-91
2021/10/20 05:22:17;;;;;;;22.93;21.50;;;;;;;;;;5077991;28;20759;-91
2021/10/20 05:24:46;;;;;;;22.87;21.47;;;;;;;;;;5077549;28;20434;-90
2021/10/20 05:27:13;;;;;;;23.00;21.70;;;;;;;;;;5077732;28;20408;-91
2021/10/20 05:29:40;;;;;;;22.07;20.77;;;;;;;;;;5077530;28;20401;-90
2021/10/20 05:32:08;;;;;;;22.50;21.30;;;;;;;;;;5077239;28;20901;-90
2021/10/20 05:34:35;;;;;;;23.77;22.17;;;;;;;;;;5077560;28;20416;-90
2021/10/20 05:37:03;;;;;;;21.97;20.77;;;;;;;;;;5077508;28;20489;-91
2021/10/20 05:39:30;;;;;;;23.37;21.83;;;;;;;;;;5077515;28;20416;-91
2021/10/20 05:41:59;;;;;;;23.03;21.63;;;;;;;;;;5077512;28;20420;-92
2021/10/20 05:44:26;;;;;;;22.17;20.87;;;;;;;;;;5077505;28;20839;-90
2021/10/20 05:46:54;;;;;;;23.13;21.80;;;;;;;;;;5077202;28;20439;-92
2021/10/20 05:49:21;;;;;;;22.47;21.07;;;;;;;;;;5077854;28;20408;-92
2021/10/20 05:51:48;;;;;;;21.93;20.70;;;;;;;;;;5077454;28;20438;-95
2021/10/20 05:54:16;;;;;;;22.30;21.00;;;;;;;;;;5077128;28;20428;-94
2021/10/20 05:56:43;;;;;;;21.97;20.77;;;;;;;;;;5081974;28;20508;-92
2021/10/20 05:59:12;;;;;;;22.50;21.20;;;;;;;;;;5086261;28;20440;-91
2021/10/20 06:01:39;;;;;;;23.43;21.93;;;;;;;;;;5081428;28;20442;-90
2021/10/20 06:04:08;;;;;;;22.63;21.33;;;;;;;;;;5091344;28;20502;-91
2021/10/20 06:06:36;;;;;;;23.67;22.37;;;;;;;;;;5079252;28;20415;-93
2021/10/20 06:09:03;;;;;;;23.23;21.30;;;;;;;;;;5076011;28;20440;-92
2021/10/20 06:11:30;;;;;;;22.40;21.10;;;;;;;;;;5075807;28;20440;-93
2021/10/20 06:13:58;;;;;;;22.97;21.57;;;;;;;;;;5076035;28;20420;-92
2021/10/20 06:16:27;;;;;;;23.00;21.73;;;;;;;;;;5075043;28;20448;-93
2021/10/20 06:18:54;;;;;;;23.07;21.60;;;;;;;;;;5077558;28;20412;-90
2021/10/20 06:21:21;;;;;;;22.27;20.97;;;;;;;;;;5075643;28;20449;-88
2021/10/20 06:23:51;;;;;;;22.70;21.40;;;;;;;;;;5075108;28;20430;-89
2021/10/20 06:26:18;;;;;;;22.23;20.93;;;;;;;;;;5075382;28;20437;-88
2021/10/20 06:28:45;;;;;;;23.50;22.00;;;;;;;;;;5075690;28;20445;-88
2021/10/20 06:31:13;;;;;;;22.30;21.00;;;;;;;;;;5075585;28;20442;-89
2021/10/20 06:33:42;;;;;;;23.33;21.93;;;;;;;;;;5075255;28;20413;-89
2021/10/20 06:36:19;;;;;;;23.10;21.70;;;;;;;;;;5073974;28;20503;-89
2021/10/20 06:38:46;;;;;;;23.47;21.80;;;;;;;;;;5075116;28;20438;-87
2021/10/20 06:41:14;;;;;;;23.90;22.00;;;;;;;;;;5075089;28;20433;-86
2021/10/20 06:43:41;;;;;;;23.10;21.67;;;;;;;;;;5075209;28;20430;-87
2021/10/20 06:46:09;;;;;;;23.10;21.60;;;;;;;;;;5074313;28;20425;-89
2021/10/20 06:48:37;;;;;;;23.80;22.40;;;;;;;;;;5075323;28;20429;-88
2021/10/20 06:51:05;;;;;;;23.03;21.73;;;;;;;;;;5073551;28;20437;-85
2021/10/20 06:53:33;;;;;;;22.83;21.27;;;;;;;;;;5073428;28;20534;-86
2021/10/20 06:56:00;;;;;;;22.60;21.30;;;;;;;;;;5074553;28;20481;-87
2021/10/20 06:58:28;;;;;;;22.90;21.60;;;;;;;;;;5028237;28;1350190;-87
2021/10/20 07:00:55;;;;;;;24.33;22.83;;;;;;;;;;5075667;28;20207;-86
2021/10/20 07:03:22;;;;;;;24.83;23.23;;;;;;;;;;5075475;28;20412;-87
2021/10/20 07:05:50;;;;;;;24.23;22.33;;;;;;;;;;5075255;28;20405;-87
2021/10/20 07:08:19;;;;;;;23.00;21.67;;;;;;;;;;5075365;28;20447;-87
2021/10/20 07:10:46;;;;;;;23.30;21.93;;;;;;;;;;5075601;28;20485;-86
2021/10/20 07:13:15;;;;;;;23.43;21.93;;;;;;;;;;5075252;28;20442;-87
2021/10/20 07:15:43;;;;;;;24.10;22.70;;;;;;;;;;5075006;28;20438;-86
2021/10/20 07:18:10;;;;;;;23.87;21.57;;;;;;;;;;5074849;28;20993;-90
2021/10/20 07:20:38;;;;;;;21.97;20.77;;;;;;;;;;5075980;28;20428;-86
2021/10/20 07:23:05;;;;;;;22.07;20.80;;;;;;;;;;5075191;28;20819;-87
2021/10/20 07:25:34;;;;;;;22.40;21.10;;;;;;;;;;5075291;28;20452;-87
2021/10/20 07:28:01;;;;;;;22.50;21.20;;;;;;;;;;5074319;28;20405;-87
2021/10/20 07:30:29;;;;;;;23.43;22.03;;;;;;;;;;5075079;28;20442;-85
2021/10/20 07:32:56;;;;;;;22.53;20.93;;;;;;;;;;5074982;28;20435;-86
2021/10/20 07:35:23;;;;;;;24.87;23.03;;;;;;;;;;5075109;28;21293;-87
2021/10/20 07:37:51;;;;;;;22.77;21.50;;;;;;;;;;5074541;28;21013;-86
2021/10/20 07:40:18;;;;;;;22.33;21.03;;;;;;;;;;5074909;28;20442;-86
2021/10/20 07:42:47;;;;;;;24.20;22.60;;;;;;;;;;5073638;28;20545;-86
2021/10/20 07:45:17;;;;;;;23.50;22.10;;;;;;;;;;5074892;28;20416;-85
2021/10/20 07:47:45;;;;;;;22.20;20.90;;;;;;;;;;5074908;28;20469;-86
2021/10/20 07:50:13;;;;;;;23.63;22.23;;;;;;;;;;5074961;28;20433;-87
2021/10/20 07:52:41;;;;;;;23.83;22.33;;;;;;;;;;5074518;28;20452;-88
2021/10/20 07:55:09;;;;;;;24.23;22.87;;;;;;;;;;5074462;28;21040;-88
2021/10/20 07:57:37;;;;;;;24.97;23.40;;;;;;;;;;5074446;28;20828;-87
2021/10/20 08:00:07;;;;;;;23.33;22.00;;;;;;;;;;5074704;28;20430;-87
2021/10/20 08:02:34;;;;;;;24.27;22.70;;;;;;;;;;5074641;28;20438;-86
2021/10/20 08:05:02;;;;;;;23.83;22.20;;;;;;;;;;5074532;28;20409;-87
2021/10/20 08:07:29;;;;;;;24.10;22.50;;;;;;;;;;5074456;28;20442;-87
2021/10/20 08:09:57;;;;;;;22.90;21.60;;;;;;;;;;5074700;28;20407;-86
2021/10/20 08:12:24;;;;;;;23.53;21.90;;;;;;;;;;5074572;28;20891;-87
2021/10/20 08:14:54;;;;;;;23.40;22.00;;;;;;;;;;5074153;28;20437;-87
2021/10/20 08:17:22;;;;;;;24.47;22.97;;;;;;;;;;5074475;28;20548;-86
2021/10/20 08:19:50;;;;;;;24.40;22.90;;;;;;;;;;5074000;28;20436;-86
2021/10/20 08:22:17;;;;;;;23.23;21.77;;;;;;;;;;5074437;28;20435;-87
2021/10/20 08:24:44;;;;;;;24.07;22.57;;;;;;;;;;5074131;28;20916;-86
2021/10/20 08:27:12;;;;;;;25.20;23.27;;;;;;;;;;5074375;28;20430;-86
2021/10/20 08:29:39;;;;;;;25.10;23.50;;;;;;;;;;5074418;28;20404;-86
2021/10/20 08:32:08;;;;;;;26.20;24.40;;;;;;;;;;5074238;28;20765;-87
2021/10/20 08:34:37;;;;;;;25.50;23.93;;;;;;;;;;5074006;28;20422;-87
2021/10/20 08:37:04;;;;;;;23.87;22.10;;;;;;;;;;5073603;28;20452;-87
2021/10/20 08:39:31;;;;;;;24.70;23.10;;;;;;;;;;5073801;28;20424;-86
2021/10/20 08:41:59;;;;;;;23.40;21.90;;;;;;;;;;5072650;28;20490;-86
2021/10/20 08:44:27;;;;;;;24.53;22.20;;;;;;;;;;5074193;28;20422;-87
2021/10/20 08:46:55;;;;;;;24.47;22.47;;;;;;;;;;5073843;28;20456;-87
2021/10/20 08:49:26;;;;;;;25.77;23.90;;;;;;;;;;5074129;28;20421;-88
2021/10/20 08:51:54;;;;;;;23.40;22.00;;;;;;;;;;5074027;28;20458;-87
2021/10/20 08:54:22;;;;;;;24.10;22.40;;;;;;;;;;5074068;28;20912;-87
2021/10/20 08:56:49;;;;;;;23.00;21.60;;;;;;;;;;5073416;28;20556;-87
2021/10/20 08:59:18;;;;;;;23.93;22.43;;;;;;;;;;5072854;28;20844;-87
2021/10/20 09:01:46;;;;;;;23.30;21.80;;;;;;;;;;5073968;28;20407;-88
2021/10/20 09:04:18;;;;;;;23.93;22.50;;;;;;;;;;5073772;28;20434;-87
2021/10/20 09:06:46;;;;;;;24.00;22.40;;;;;;;;;;5073900;28;20445;-87
2021/10/20 09:09:17;;;;;;;22.73;21.43;;;;;;;;;;5073936;28;20409;-87
2021/10/20 09:11:45;;;;;;;24.30;22.50;;;;;;;;;;5073603;28;20431;-87
2021/10/20 09:14:14;;;;;;;24.50;23.10;;;;;;;;;;5074065;28;20468;-87
2021/10/20 09:16:43;;;;;;;23.27;21.97;;;;;;;;;;5073472;28;20998;-86
2021/10/20 09:19:14;;;;;;;22.50;21.20;;;;;;;;;;5073590;28;20927;-87
2021/10/20 09:21:48;;;;;;;22.87;21.57;;;;;;;;;;5073499;28;20934;-87
2021/10/20 09:24:17;;;;;;;23.57;21.97;;;;;;;;;;5073647;28;20436;-87
2021/10/20 09:26:44;;;;;;;21.60;20.40;;;;;;;;;;5073194;28;20425;-87
2021/10/20 09:29:22;;;;;;;23.00;21.70;;;;;;;;;;5073667;28;20444;-94
2021/10/20 09:31:50;;;;;;;23.90;22.40;;;;;;;;;;5073828;28;20420;-88
2021/10/20 09:34:18;;;;;;;24.00;22.40;;;;;;;;;;5073459;28;20418;-86
2021/10/20 09:36:45;;;;;;;24.07;22.37;;;;;;;;;;5073194;28;20490;-90
2021/10/20 09:39:14;;;;;;;24.30;22.73;;;;;;;;;;5073802;28;20443;-90
2021/10/20 09:41:43;;;;;;;23.67;22.13;;;;;;;;;;5073824;28;20440;-88
2021/10/20 09:44:13;;;;;;;23.67;22.17;;;;;;;;;;5073539;28;20437;-88
2021/10/20 09:46:42;;;;;;;23.33;21.93;;;;;;;;;;5073766;28;20431;-88
2021/10/20 09:49:19;;;;;;;24.77;22.87;;;;;;;;;;5073546;28;20434;-89
2021/10/20 09:51:47;;;;;;;23.53;22.17;;;;;;;;;;5076973;28;20919;-91
2021/10/20 09:54:21;;;;;;;23.53;22.03;;;;;;;;;;5076965;28;20453;-90
2021/10/20 09:56:55;;;;;;;22.37;21.17;;;;;;;;;;5076665;28;20969;-91
2021/10/20 09:59:22;;;;;;;23.50;22.10;;;;;;;;;;5077224;28;20906;-90
2021/10/20 10:01:50;;;;;;;24.53;23.03;;;;;;;;;;5077146;28;20426;-90
2021/10/20 10:04:17;;;;;;;23.93;22.33;;;;;;;;;;5077067;28;20432;-91
2021/10/20 10:06:45;;;;;;;23.80;22.20;;;;;;;;;;5077094;28;20770;-91
2021/10/20 10:09:13;;;;;;;24.27;22.77;;;;;;;;;;5077217;28;20425;-91
2021/10/20 10:11:41;;;;;;;24.50;22.73;;;;;;;;;;5076867;28;20479;-90
2021/10/20 10:14:13;;;;;;;23.30;21.90;;;;;;;;;;5075691;28;20414;-92
2021/10/20 10:16:42;;;;;;;23.57;22.13;;;;;;;;;;5076735;28;20416;-91
2021/10/20 10:19:10;;;;;;;22.70;21.40;;;;;;;;;;5076645;28;20496;-91
2021/10/20 10:21:40;;;;;;;25.07;23.43;;;;;;;;;;5076537;28;20412;-91
2021/10/20 10:24:11;;;;;;;24.30;22.90;;;;;;;;;;5076644;28;20784;-93
2021/10/20 10:26:39;;;;;;;24.53;23.13;;;;;;;;;;5076762;28;20417;-91
2021/10/20 10:29:07;;;;;;;24.23;22.73;;;;;;;;;;5077026;28;20450;-91
2021/10/20 10:31:38;;;;;;;25.57;23.70;;;;;;;;;;5076544;28;20413;-90
2021/10/20 10:34:06;;;;;;;23.90;22.20;;;;;;;;;;5076138;28;20440;-92
2021/10/20 10:36:34;;;;;;;25.17;23.77;;;;;;;;;;5076174;28;20417;-93
2021/10/20 10:39:06;;;;;;;25.43;23.77;;;;;;;;;;5076483;28;20507;-91
2021/10/20 10:41:35;;;;;;;25.00;23.20;;;;;;;;;;5076687;28;20414;-92
2021/10/20 10:44:16;;;;;;;26.30;24.70;;;;;;;;;;5076511;28;20436;-91
2021/10/20 10:46:53;;;;;;;25.80;24.20;;;;;;;;;;5076230;28;20543;-91
2021/10/20 10:49:24;;;;;;;28.67;26.53;;;;;;;;;;5076490;28;20411;-91
2021/10/20 10:52:04;;;;;;;24.47;23.17;;;;;;;;;;5076199;28;20772;-91
2021/10/20 10:54:36;;;;;;;25.30;23.50;;;;;;;;;;5075962;28;20492;-94
2021/10/20 10:57:11;;;;;;;28.17;26.00;;;;;;;;;;5075779;28;20493;-94
2021/10/20 10:59:38;;;;;;;24.63;23.13;;;;;;;;;;5076240;28;20466;-91
2021/10/20 11:02:27;;;;;;;23.60;21.87;;;;;;;;;;5074994;28;20916;-91
2021/10/20 11:04:57;;;;;;;24.13;22.23;;;;;;;;;;5075988;28;20432;-91
2021/10/20 11:07:26;;;;;;;25.73;24.10;;;;;;;;;;5075887;28;20881;-90
2021/10/20 11:09:54;;;;;;;24.23;22.80;;;;;;;;;;5075113;28;20473;-88
2021/10/20 11:12:25;;;;;;;24.67;22.93;;;;;;;;;;5075872;28;20449;-90
2021/10/20 11:14:55;;;;;;;24.77;23.27;;;;;;;;;;5075558;28;20442;-90
2021/10/20 11:17:24;;;;;;;24.10;22.43;;;;;;;;;;5074340;28;20537;-91
2021/10/20 11:19:52;;;;;;;23.37;21.67;;;;;;;;;;5075360;28;20757;-90
2021/10/20 11:22:19;;;;;;;24.23;22.73;;;;;;;;;;5075272;28;20449;-90
2021/10/20 11:24:48;;;;;;;26.00;24.40;;;;;;;;;;5075037;28;20447;-89
2021/10/20 11:27:16;;;;;;;24.20;22.73;;;;;;;;;;5075543;28;20445;-91
2021/10/20 11:29:44;;;;;;;23.93;22.50;;;;;;;;;;5075614;28;20471;-89
2021/10/20 11:32:12;;;;;;;25.03;23.43;;;;;;;;;;5075271;28;20410;-89
2021/10/20 11:34:43;;;;;;;24.77;23.17;;;;;;;;;;5074907;28;20439;-89
2021/10/20 11:37:11;;;;;;;24.97;23.20;;;;;;;;;;5074091;28;20513;-89
2021/10/20 11:39:38;;;;;;;27.00;24.77;;;;;;;;;;5074005;28;20429;-89
2021/10/20 11:42:08;;;;;;;24.03;22.53;;;;;;;;;;5074962;28;20441;-89
2021/10/20 11:44:37;;;;;;;25.10;23.40;;;;;;;;;;5073913;28;20454;-90
2021/10/20 11:47:06;;;;;;;24.70;23.20;;;;;;;;;;5074834;28;20447;-89
2021/10/20 11:49:35;;;;;;;26.83;24.83;;;;;;;;;;5074836;28;20429;-90
2021/10/20 11:52:04;;;;;;;24.17;22.57;;;;;;;;;;5074793;28;20468;-88
2021/10/20 11:54:32;;;;;;;25.87;24.23;;;;;;;;;;5074673;28;20406;-89
2021/10/20 11:57:03;;;;;;;24.27;22.50;;;;;;;;;;5074418;28;20473;-89
2021/10/20 11:59:31;;;;;;;23.70;22.30;;;;;;;;;;5074597;28;20566;-89
2021/10/20 12:02:00;;;;;;;24.50;22.90;;;;;;;;;;5074671;28;20443;-90
2021/10/20 12:04:27;;;;;;;25.27;23.67;;;;;;;;;;5074625;28;20520;-89
2021/10/20 12:06:56;;;;;;;25.03;23.53;;;;;;;;;;5074867;28;20446;-87
2021/10/20 12:09:25;;;;;;;24.90;23.30;;;;;;;;;;5074248;28;20451;-89
2021/10/20 12:11:53;;;;;;;24.13;22.73;;;;;;;;;;5074571;28;20457;-89
2021/10/20 12:14:22;;;;;;;24.87;23.40;;;;;;;;;;5073824;28;20480;-90
2021/10/20 12:16:50;;;;;;;25.23;23.00;;;;;;;;;;5074630;28;20408;-90
2021/10/20 12:19:21;;;;;;;24.93;23.33;;;;;;;;;;5072407;28;20547;-90
2021/10/20 12:21:48;;;;;;;22.63;21.13;;;;;;;;;;5074073;28;20458;-90
2021/10/20 12:24:18;;;;;;;24.50;22.70;;;;;;;;;;5074434;28;20444;-91
2021/10/20 12:26:47;;;;;;;24.10;22.17;;;;;;;;;;5073310;28;20438;-91
2021/10/20 12:29:16;;;;;;;22.83;21.47;;;;;;;;;;5074495;28;20453;-91
2021/10/20 12:31:44;;;;;;;24.63;23.03;;;;;;;;;;5074246;28;20443;-90
2021/10/20 12:34:11;;;;;;;23.70;22.30;;;;;;;;;;5073009;28;20432;-93
2021/10/20 12:36:41;;;;;;;24.03;22.43;;;;;;;;;;5073986;28;20418;-91
2021/10/20 12:39:08;;;;;;;26.03;24.23;;;;;;;;;;5074658;28;20823;-91
2021/10/20 12:41:36;;;;;;;23.90;22.30;;;;;;;;;;5074104;28;20419;-91
2021/10/20 12:44:06;;;;;;;21.50;20.20;;;;;;;;;;5073885;28;20416;-91
2021/10/20 12:46:35;;;;;;;24.43;23.00;;;;;;;;;;5074460;28;20473;-90
2021/10/20 12:49:05;;;;;;;23.83;22.33;;;;;;;;;;5073650;28;20425;-91
2021/10/20 12:51:35;;;;;;;23.23;21.53;;;;;;;;;;5074279;28;20414;-91
2021/10/20 12:54:03;;;;;;;23.77;22.37;;;;;;;;;;5074074;28;20463;-90
2021/10/20 12:56:31;;;;;;;24.93;23.43;;;;;;;;;;5074036;28;20446;-91
2021/10/20 12:59:07;;;;;;;24.13;22.63;;;;;;;;;;5074082;28;20818;-90
2021/10/20 13:01:34;;;;;;;24.70;22.80;;;;;;;;;;5074153;28;20401;-90
2021/10/20 13:04:02;;;;;;;24.27;22.77;;;;;;;;;;5074121;28;20446;-90
2021/10/20 13:06:30;;;;;;;25.80;24.20;;;;;;;;;;5074087;28;20421;-91
2021/10/20 13:08:57;;;;;;;25.33;23.10;;;;;;;;;;5073844;28;20425;-88
2021/10/20 13:11:24;;;;;;;23.60;22.20;;;;;;;;;;5074161;28;20453;-91
2021/10/20 13:13:52;;;;;;;24.10;22.50;;;;;;;;;;5073885;28;20415;-90
2021/10/20 13:16:21;;;;;;;24.03;22.33;;;;;;;;;;5073951;28;20426;-91
2021/10/20 13:18:48;;;;;;;24.03;22.30;;;;;;;;;;5074368;28;20465;-90
2021/10/20 13:21:17;;;;;;;24.87;23.00;;;;;;;;;;5073793;28;20454;-91
2021/10/20 13:23:44;;;;;;;24.27;22.77;;;;;;;;;;5073676;28;20414;-91
2021/10/20 13:26:12;;;;;;;23.60;22.20;;;;;;;;;;5076797;28;20413;-87
2021/10/20 13:28:40;;;;;;;24.40;22.90;;;;;;;;;;5077623;28;20425;-88
2021/10/20 13:31:07;;;;;;;25.10;23.40;;;;;;;;;;5077656;28;20473;-88
2021/10/20 13:33:36;;;;;;;25.77;24.27;;;;;;;;;;5077738;28;20422;-88
2021/10/20 13:36:10;;;;;;;21.80;20.50;;;;;;;;;;5077546;28;20476;-89
2021/10/20 13:38:37;;;;;;;23.20;21.70;;;;;;;;;;5077243;28;20467;-89
2021/10/20 13:41:04;;;;;;;23.00;21.70;;;;;;;;;;5077540;28;20461;-88
2021/10/20 13:43:32;;;;;;;22.80;21.40;;;;;;;;;;5077579;28;20470;-88
2021/10/20 13:45:59;;;;;;;25.33;23.67;;;;;;;;;;5077408;28;20429;-88
2021/10/20 13:48:27;;;;;;;22.83;21.33;;;;;;;;;;5077210;28;20504;-89
2021/10/20 13:50:56;;;;;;;25.03;23.53;;;;;;;;;;5075907;28;20494;-88
2021/10/20 13:53:23;;;;;;;24.20;22.80;;;;;;;;;;5077051;28;20439;-89
2021/10/20 13:55:50;;;;;;;24.47;22.97;;;;;;;;;;5076859;28;20440;-89
2021/10/20 13:58:17;;;;;;;22.50;21.10;;;;;;;;;;5076615;28;20861;-88
2021/10/20 14:00:45;;;;;;;23.87;22.37;;;;;;;;;;5076907;28;20410;-89
2021/10/20 14:03:13;;;;;;;23.40;21.90;;;;;;;;;;5077073;28;20424;-88
2021/10/20 14:05:40;;;;;;;23.57;22.17;;;;;;;;;;5077023;28;20441;-89
2021/10/20 14:08:09;;;;;;;22.80;21.50;;;;;;;;;;5076494;28;20481;-87
2021/10/20 14:10:37;;;;;;;24.67;23.07;;;;;;;;;;5076954;28;20415;-87
2021/10/20 14:13:04;;;;;;;23.33;21.93;;;;;;;;;;5076885;28;20756;-88
2021/10/20 14:15:31;;;;;;;23.60;22.10;;;;;;;;;;5076821;28;20413;-89
2021/10/20 14:17:59;;;;;;;23.57;21.97;;;;;;;;;;5076457;28;20531;-89
2021/10/20 14:20:27;;;;;;;25.27;23.53;;;;;;;;;;5076654;28;20439;-89
2021/10/20 14:22:55;;;;;;;24.57;22.97;;;;;;;;;;5076547;28;20487;-89